createdAt,value
2023-05-03T00:01:39.325Z,49.86
2023-05-03T00:04:06.394Z,49.75
2023-05-03T00:06:33.540Z,49.85
2023-05-03T00:09:00.640Z,49.61
2023-05-03T00:11:27.681Z,49.84
2023-05-03T00:13:54.658Z,49.97
2023-05-03T00:16:21.799Z,49.69
2023-05-03T00:18:49.475Z,49.95
2023-05-03T00:21:17.193Z,49.82
2023-05-03T00:23:44.180Z,49.72
2023-05-03T00:26:11.170Z,50.00
2023-05-03T00:28:39.763Z,50.33
2023-05-03T00:31:09.069Z,50.07
2023-05-03T00:33:39.926Z,50.26
2023-05-03T00:36:11.508Z,50.36
2023-05-03T00:38:40.554Z,49.99
2023-05-03T00:41:09.368Z,50.12
2023-05-03T00:43:37.956Z,49.49
2023-05-03T00:46:16.775Z,49.85
2023-05-03T00:48:48.068Z,50.03
2023-05-03T00:51:16.468Z,50.16
2023-05-03T00:53:43.558Z,50.07
2023-05-03T00:56:14.243Z,50.29
2023-05-03T00:58:41.311Z,49.84
2023-05-03T01:01:09.062Z,49.98
2023-05-03T01:03:39.876Z,49.87
2023-05-03T01:06:44.522Z,50.05
2023-05-03T01:09:17.402Z,49.98
2023-05-03T01:12:19.599Z,49.90
2023-05-03T01:15:16.072Z,49.92
2023-05-03T01:17:51.064Z,50.13
2023-05-03T01:20:26.073Z,49.85
2023-05-03T01:22:59.087Z,49.55
2023-05-03T01:25:29.447Z,49.66
2023-05-03T01:27:56.674Z,49.83
2023-05-03T01:30:27.705Z,49.40
2023-05-03T01:33:32.558Z,49.31
2023-05-03T01:36:13.228Z,48.92
2023-05-03T01:38:40.611Z,49.09
2023-05-03T01:41:11.824Z,49.42
2023-05-03T01:43:40.885Z,49.23
2023-05-03T01:46:08.434Z,48.78
2023-05-03T01:48:36.014Z,49.10
2023-05-03T01:51:03.531Z,48.84
2023-05-03T01:53:30.596Z,49.11
2023-05-03T01:55:57.635Z,49.00
2023-05-03T01:58:24.673Z,49.09
2023-05-03T02:00:53.278Z,48.92
2023-05-03T02:03:21.022Z,48.63
2023-05-03T02:05:48.707Z,48.90
2023-05-03T02:08:16.717Z,48.30
2023-05-03T02:10:46.870Z,48.09
2023-05-03T02:13:14.106Z,48.41
2023-05-03T02:15:41.499Z,48.19
2023-05-03T02:18:09.774Z,47.99
2023-05-03T02:20:38.227Z,47.48
2023-05-03T02:23:05.371Z,47.29
2023-05-03T02:25:32.563Z,47.76
2023-05-03T02:27:59.953Z,47.90
2023-05-03T02:30:27.288Z,47.48
2023-05-03T02:32:54.520Z,47.14
2023-05-03T02:35:21.665Z,47.18
2023-05-03T02:37:48.817Z,46.95
2023-05-03T02:40:16.891Z,46.49
2023-05-03T02:42:47.664Z,46.09
2023-05-03T02:45:21.025Z,46.22
2023-05-03T02:47:48.359Z,45.53
2023-05-03T02:50:16.136Z,45.46
2023-05-03T02:52:43.157Z,45.16
2023-05-03T02:55:10.574Z,45.17
2023-05-03T02:57:40.424Z,45.32
2023-05-03T03:00:11.530Z,45.14
2023-05-03T03:02:38.926Z,44.64
2023-05-03T03:05:06.436Z,44.55
2023-05-03T03:07:33.783Z,44.51
2023-05-03T03:10:01.193Z,44.14
2023-05-03T03:12:31.762Z,44.51
2023-05-03T03:15:00.473Z,44.26
2023-05-03T03:17:32.684Z,44.41
2023-05-03T03:20:02.321Z,44.40
2023-05-03T03:22:31.060Z,44.70
2023-05-03T03:24:58.091Z,44.59
2023-05-03T03:27:25.116Z,44.22
2023-05-03T03:29:52.145Z,44.36
2023-05-03T03:32:19.185Z,44.25
2023-05-03T03:34:46.329Z,45.04
2023-05-03T03:37:13.376Z,44.71
2023-05-03T03:39:42.362Z,44.92
2023-05-03T03:42:12.301Z,45.28
2023-05-03T03:44:39.560Z,45.30
2023-05-03T03:47:07.611Z,44.89
2023-05-03T03:49:34.731Z,45.22
2023-05-03T03:52:01.783Z,45.07
2023-05-03T03:54:29.624Z,44.76
2023-05-03T03:56:57.282Z,45.28
2023-05-03T03:59:25.373Z,44.95
2023-05-03T04:01:53.692Z,44.76
2023-05-03T04:04:21.357Z,44.78
2023-05-03T04:06:49.389Z,44.69
2023-05-03T04:09:17.704Z,45.16
2023-05-03T04:11:46.338Z,45.49
2023-05-03T04:14:13.847Z,45.35
2023-05-03T04:16:42.432Z,45.18
2023-05-03T04:19:09.709Z,45.52
2023-05-03T04:21:39.340Z,45.92
2023-05-03T04:24:07.377Z,46.17
2023-05-03T04:26:35.368Z,46.31
2023-05-03T04:29:15.835Z,46.11
2023-05-03T04:31:45.101Z,47.03
2023-05-03T04:34:15.910Z,47.32
2023-05-03T04:36:46.645Z,48.50
2023-05-03T04:39:15.564Z,48.28
2023-05-03T04:41:44.691Z,48.86
2023-05-03T04:44:12.121Z,50.04
2023-05-03T04:46:39.795Z,50.78
2023-05-03T04:49:07.675Z,51.13
2023-05-03T04:51:35.081Z,51.37
2023-05-03T04:54:03.027Z,51.48
2023-05-03T04:56:31.407Z,51.16
2023-05-03T04:59:09.104Z,52.18
2023-05-03T05:01:37.417Z,52.39
2023-05-03T05:04:06.867Z,52.69
2023-05-03T05:06:44.848Z,53.20
2023-05-03T05:09:26.124Z,54.03
2023-05-03T05:11:57.160Z,53.85
2023-05-03T05:14:28.462Z,53.45
2023-05-03T05:16:56.718Z,53.69
2023-05-03T05:19:24.078Z,53.68
2023-05-03T05:21:54.743Z,53.30
2023-05-03T05:24:25.862Z,52.83
2023-05-03T05:26:53.071Z,52.66
2023-05-03T05:29:20.410Z,53.06
2023-05-03T05:31:47.877Z,52.48
2023-05-03T05:34:15.594Z,52.97
2023-05-03T05:36:42.796Z,52.72
2023-05-03T05:39:10.294Z,52.16
2023-05-03T05:41:37.471Z,52.31
2023-05-03T05:44:05.298Z,51.56
2023-05-03T05:46:32.432Z,51.80
2023-05-03T05:49:00.139Z,52.08
2023-05-03T05:51:28.149Z,51.82
2023-05-03T05:53:55.640Z,51.88
2023-05-03T05:56:23.771Z,51.60
2023-05-03T05:58:50.762Z,51.55
2023-05-03T06:01:21.215Z,51.08
2023-05-03T06:03:48.282Z,51.14
2023-05-03T06:06:15.409Z,51.22
2023-05-03T06:08:42.484Z,51.18
2023-05-03T06:11:14.168Z,51.45
2023-05-03T06:13:41.973Z,50.99
2023-05-03T06:16:11.640Z,50.36
2023-05-03T06:18:39.344Z,50.29
2023-05-03T06:21:07.710Z,50.25
2023-05-03T06:23:35.383Z,49.82
2023-05-03T06:26:03.888Z,49.48
2023-05-03T06:28:31.183Z,49.46
2023-05-03T06:30:58.312Z,49.36
2023-05-03T06:33:27.415Z,49.38
2023-05-03T06:35:54.960Z,49.09
2023-05-03T06:38:22.295Z,48.91
2023-05-03T06:40:50.527Z,49.34
2023-05-03T06:43:17.559Z,49.19
2023-05-03T06:45:54.221Z,49.02
2023-05-03T06:48:22.135Z,48.80
2023-05-03T06:50:49.448Z,48.73
2023-05-03T06:53:16.477Z,48.28
2023-05-03T06:55:46.190Z,48.47
2023-05-03T06:58:13.317Z,48.68
2023-05-03T07:00:41.202Z,48.91
2023-05-03T07:03:08.426Z,48.33
2023-05-03T07:05:35.665Z,47.95
2023-05-03T07:08:03.708Z,47.66
2023-05-03T07:10:31.493Z,47.57
2023-05-03T07:12:58.888Z,47.06
2023-05-03T07:15:25.964Z,46.66
2023-05-03T07:17:53.106Z,46.09
2023-05-03T07:20:20.275Z,46.07
2023-05-03T07:22:48.401Z,46.10
2023-05-03T07:25:17.892Z,45.85
2023-05-03T07:27:45.137Z,45.76
2023-05-03T07:30:12.525Z,45.36
2023-05-03T07:32:39.829Z,45.11
2023-05-03T07:35:07.985Z,45.02
2023-05-03T07:37:35.131Z,45.31
2023-05-03T07:40:02.476Z,45.21
2023-05-03T07:42:31.391Z,44.67
2023-05-03T07:44:59.627Z,44.44
2023-05-03T07:47:27.858Z,44.26
2023-05-03T07:49:55.066Z,44.38
2023-05-03T07:52:22.039Z,44.29
2023-05-03T07:54:49.153Z,44.14
2023-05-03T07:57:16.516Z,44.17
2023-05-03T07:59:43.616Z,43.93
2023-05-03T08:02:10.730Z,44.31
2023-05-03T08:04:38.066Z,44.15
2023-05-03T08:07:05.383Z,44.00
2023-05-03T08:09:32.475Z,44.07
2023-05-03T08:11:59.623Z,44.35
2023-05-03T08:14:28.093Z,44.41
2023-05-03T08:16:55.272Z,44.33
2023-05-03T08:19:22.312Z,44.51
2023-05-03T08:21:49.438Z,44.54
2023-05-03T08:24:16.645Z,44.62
2023-05-03T08:26:45.505Z,44.48
2023-05-03T08:29:12.580Z,44.34
2023-05-03T08:31:39.868Z,44.53
2023-05-03T08:34:08.148Z,44.36
2023-05-03T08:36:35.915Z,44.34
2023-05-03T08:39:06.604Z,44.44
2023-05-03T08:41:34.159Z,44.87
2023-05-03T08:44:04.106Z,44.71
2023-05-03T08:46:31.367Z,44.62
2023-05-03T08:49:00.161Z,44.86
2023-05-03T08:51:28.360Z,44.98
2023-05-03T08:53:55.443Z,45.51
2023-05-03T08:56:41.675Z,46.21
2023-05-03T08:59:10.685Z,45.79
2023-05-03T09:01:41.745Z,45.97
2023-05-03T09:04:10.405Z,45.70
2023-05-03T09:06:38.536Z,46.08
2023-05-03T09:09:08.780Z,46.27
2023-05-03T09:11:39.119Z,46.25
2023-05-03T09:14:09.729Z,46.41
2023-05-03T09:16:38.394Z,47.18
2023-05-03T09:19:11.904Z,48.07
2023-05-03T09:21:40.810Z,47.75
2023-05-03T09:24:18.828Z,48.53
2023-05-03T09:26:47.811Z,48.07
2023-05-03T09:29:32.641Z,48.18
2023-05-03T09:32:01.456Z,47.83
2023-05-03T09:34:28.924Z,47.75
2023-05-03T09:36:56.707Z,47.68
2023-05-03T09:39:24.037Z,47.41
2023-05-03T09:41:51.306Z,47.28
2023-05-03T09:44:18.730Z,47.31
2023-05-03T09:47:05.363Z,47.29
2023-05-03T09:49:33.235Z,47.31
2023-05-03T09:52:01.765Z,47.36
2023-05-03T09:54:33.353Z,47.33
2023-05-03T09:57:02.596Z,47.10
2023-05-03T09:59:29.779Z,47.11
2023-05-03T10:02:02.536Z,47.43
2023-05-03T10:04:43.808Z,47.40
2023-05-03T10:07:17.762Z,48.72
2023-05-03T10:09:47.404Z,47.97
2023-05-03T10:12:17.803Z,47.64
2023-05-03T10:14:52.349Z,47.75
2023-05-03T10:17:43.663Z,47.77
2023-05-03T10:20:29.822Z,47.83
2023-05-03T10:23:06.164Z,48.06
2023-05-03T10:25:36.006Z,47.95
2023-05-03T10:28:08.838Z,47.61
2023-05-03T10:30:38.009Z,47.37
2023-05-03T10:33:14.320Z,47.19
2023-05-03T10:35:43.470Z,47.32
2023-05-03T10:38:29.877Z,47.21
2023-05-03T10:40:57.272Z,47.42
2023-05-03T10:43:33.371Z,47.42
2023-05-03T10:46:05.705Z,47.00
2023-05-03T10:48:34.445Z,47.13
2023-05-03T10:51:30.798Z,46.79
2023-05-03T10:53:58.080Z,46.47
2023-05-03T10:56:25.430Z,46.52
2023-05-03T10:58:56.304Z,46.35
2023-05-03T11:01:25.060Z,46.16
2023-05-03T11:04:31.778Z,45.50
2023-05-03T11:06:59.598Z,46.20
2023-05-03T11:09:34.663Z,45.78
2023-05-03T11:12:06.457Z,46.00
2023-05-03T11:14:33.708Z,45.69
2023-05-03T11:17:01.460Z,45.27
2023-05-03T11:19:29.503Z,44.88
2023-05-03T11:21:57.778Z,44.53
2023-05-03T11:24:24.978Z,44.33
2023-05-03T11:26:52.016Z,44.17
2023-05-03T11:29:19.675Z,44.60
2023-05-03T11:31:46.982Z,44.50
2023-05-03T11:34:15.875Z,44.40
2023-05-03T11:36:43.116Z,44.39
2023-05-03T11:39:12.111Z,44.61
2023-05-03T11:41:39.340Z,44.80
2023-05-03T11:44:16.284Z,44.34
2023-05-03T11:46:46.721Z,44.33
2023-05-03T11:49:18.585Z,44.42
2023-05-03T11:51:48.016Z,44.12
2023-05-03T11:54:25.363Z,43.79
2023-05-03T11:56:59.183Z,43.35
2023-05-03T11:59:39.080Z,43.56
2023-05-03T12:02:10.862Z,42.40
2023-05-03T12:04:42.974Z,42.88
2023-05-03T12:07:13.399Z,42.76
2023-05-03T12:09:43.974Z,42.97
2023-05-03T12:12:24.751Z,42.94
2023-05-03T12:15:03.100Z,42.80
2023-05-03T12:17:44.100Z,42.70
2023-05-03T12:22:58.106Z,43.15
2023-05-03T12:25:28.934Z,43.21
2023-05-03T12:28:18.754Z,43.45
2023-05-03T12:30:47.622Z,43.74
2023-05-03T12:33:16.895Z,43.43
2023-05-03T12:35:47.826Z,43.24
2023-05-03T12:38:17.378Z,43.18
2023-05-03T12:40:47.037Z,43.14
2023-05-03T12:43:14.428Z,42.67
2023-05-03T12:45:46.498Z,42.78
2023-05-03T12:48:17.362Z,42.47
2023-05-03T12:50:45.721Z,42.34
2023-05-03T12:53:16.963Z,42.26
2023-05-03T12:55:45.206Z,41.97
2023-05-03T13:01:21.988Z,42.16
2023-05-03T13:03:43.115Z,41.92
2023-05-03T13:06:13.926Z,41.96
2023-05-03T13:11:12.618Z,42.03
2023-05-03T13:13:40.258Z,42.21
2023-05-03T13:16:08.053Z,41.63
2023-05-03T13:18:35.580Z,41.70
2023-05-03T13:21:02.636Z,41.59
2023-05-03T13:23:29.720Z,41.83
2023-05-03T13:25:57.381Z,41.93
2023-05-03T13:28:25.088Z,41.67
2023-05-03T13:30:52.082Z,41.67
2023-05-03T13:33:19.135Z,41.86
2023-05-03T13:35:48.108Z,41.93
2023-05-03T13:38:15.794Z,42.07
2023-05-03T13:40:42.833Z,41.69
2023-05-03T13:43:09.850Z,42.20
2023-05-03T13:45:37.067Z,42.30
2023-05-03T13:48:18.725Z,42.53
2023-05-03T13:50:47.151Z,42.44
2023-05-03T13:53:14.311Z,42.21
2023-05-03T13:55:41.539Z,42.65
2023-05-03T13:58:08.783Z,42.90
2023-05-03T14:00:36.289Z,43.10
2023-05-03T14:03:03.713Z,42.74
2023-05-03T14:05:30.997Z,43.04
2023-05-03T14:07:58.383Z,43.01
2023-05-03T14:10:25.633Z,42.96
2023-05-03T14:12:53.146Z,43.27
2023-05-03T14:15:20.740Z,43.64
2023-05-03T14:17:48.124Z,43.77
2023-05-03T14:20:17.740Z,44.04
2023-05-03T14:22:46.275Z,43.87
2023-05-03T14:25:13.462Z,43.88
2023-05-03T14:27:40.494Z,43.89
2023-05-03T14:30:09.575Z,44.29
2023-05-03T14:32:36.931Z,44.17
2023-05-03T14:35:04.158Z,44.45
2023-05-03T14:37:31.406Z,44.09
2023-05-03T14:39:58.955Z,44.15
2023-05-03T14:42:30.386Z,45.11
2023-05-03T14:44:57.366Z,44.40
2023-05-03T14:47:24.761Z,44.42
2023-05-03T14:49:52.241Z,44.03
2023-05-03T14:52:19.277Z,44.54
2023-05-03T14:54:46.381Z,44.49
2023-05-03T14:57:13.460Z,44.85
2023-05-03T14:59:40.578Z,44.77
2023-05-03T15:02:07.644Z,45.00
2023-05-03T15:04:37.037Z,45.12
2023-05-03T15:07:05.306Z,45.00
2023-05-03T15:09:36.138Z,45.14
2023-05-03T15:12:03.954Z,45.16
2023-05-03T15:14:31.462Z,45.40
2023-05-03T15:16:58.647Z,45.50
2023-05-03T15:19:26.854Z,45.49
2023-05-03T15:21:54.134Z,46.00
2023-05-03T15:24:22.230Z,46.00
2023-05-03T15:26:49.286Z,46.33
2023-05-03T15:29:16.510Z,47.10
2023-05-03T15:31:44.147Z,47.28
2023-05-03T15:34:12.488Z,47.17
2023-05-03T15:36:40.786Z,47.15
2023-05-03T15:39:10.263Z,47.48
2023-05-03T15:41:37.318Z,47.38
2023-05-03T15:44:05.638Z,47.47
2023-05-03T15:46:34.558Z,47.30
2023-05-03T15:49:01.967Z,47.66
2023-05-03T15:51:29.474Z,47.72
2023-05-03T15:53:56.635Z,47.72
2023-05-03T15:56:23.875Z,47.72
2023-05-03T15:58:51.125Z,47.64
2023-05-03T16:01:18.796Z,47.93
2023-05-03T16:03:46.568Z,48.02
2023-05-03T16:06:17.925Z,48.72
2023-05-03T16:08:45.757Z,48.34
2023-05-03T16:11:13.512Z,48.71
2023-05-03T16:13:40.842Z,48.70
2023-05-03T16:16:07.999Z,48.84
2023-05-03T16:18:35.166Z,49.00
2023-05-03T16:21:02.815Z,49.29
2023-05-03T16:23:30.054Z,49.75
2023-05-03T16:25:57.155Z,49.51
2023-05-03T16:28:24.484Z,49.70
2023-05-03T16:30:51.919Z,49.88
2023-05-03T16:33:19.624Z,50.39
2023-05-03T16:35:46.709Z,50.71
2023-05-03T16:38:13.728Z,50.65
2023-05-03T16:40:42.563Z,50.74
2023-05-03T16:43:10.350Z,50.62
2023-05-03T16:45:37.743Z,50.92
2023-05-03T16:48:07.383Z,50.74
2023-05-03T16:50:35.845Z,51.00
2023-05-03T16:53:02.855Z,50.90
2023-05-03T16:55:29.974Z,50.70
2023-05-03T16:57:56.996Z,50.95
2023-05-03T17:00:24.451Z,51.13
2023-05-03T17:02:51.541Z,51.15
2023-05-03T17:05:20.385Z,51.12
2023-05-03T17:07:47.453Z,51.67
2023-05-03T17:10:14.596Z,51.90
2023-05-03T17:12:41.686Z,51.90
2023-05-03T17:15:10.223Z,51.95
2023-05-03T17:17:37.409Z,52.40
2023-05-03T17:20:05.227Z,52.79
2023-05-03T17:22:32.555Z,52.42
2023-05-03T17:24:59.700Z,52.26
2023-05-03T17:27:26.744Z,52.27
2023-05-03T17:29:57.404Z,52.44
2023-05-03T17:32:24.683Z,52.43
2023-05-03T17:34:51.744Z,52.61
2023-05-03T17:37:18.778Z,52.46
2023-05-03T17:39:45.748Z,52.49
2023-05-03T17:42:12.801Z,52.27
2023-05-03T17:44:42.908Z,51.44
2023-05-03T17:47:11.179Z,51.37
2023-05-03T17:49:38.326Z,51.07
2023-05-03T17:52:05.361Z,51.00
2023-05-03T17:54:32.438Z,51.02
2023-05-03T17:56:59.516Z,51.00
2023-05-03T17:59:26.512Z,51.08
2023-05-03T18:01:53.569Z,51.12
2023-05-03T18:04:20.713Z,50.99
2023-05-03T18:06:47.798Z,51.14
2023-05-03T18:09:14.845Z,51.25
2023-05-03T18:11:44.960Z,51.27
2023-05-03T18:14:12.517Z,51.07
2023-05-03T18:16:39.700Z,50.11
2023-05-03T18:19:07.062Z,48.65
2023-05-03T18:21:35.542Z,48.04
2023-05-03T18:24:03.541Z,47.84
2023-05-03T18:26:30.564Z,47.53
2023-05-03T18:28:57.608Z,46.97
2023-05-03T18:31:24.728Z,46.46
2023-05-03T18:33:51.856Z,46.19
2023-05-03T18:36:18.886Z,46.22
2023-05-03T18:38:47.260Z,46.58
2023-05-03T18:41:15.973Z,46.25
2023-05-03T18:43:44.227Z,46.62
2023-05-03T18:46:11.912Z,46.70
2023-05-03T18:48:39.618Z,47.13
2023-05-03T18:51:07.221Z,47.26
2023-05-03T18:53:34.524Z,47.47
2023-05-03T18:56:02.977Z,47.59
2023-05-03T18:58:30.396Z,47.78
2023-05-03T19:01:01.370Z,47.61
2023-05-03T19:03:29.691Z,48.06
2023-05-03T19:06:11.394Z,48.29
2023-05-03T19:08:38.674Z,48.14
2023-05-03T19:11:09.633Z,49.07
2023-05-03T19:13:37.801Z,49.16
2023-05-03T19:16:05.707Z,49.08
2023-05-03T19:18:32.894Z,49.41
2023-05-03T19:21:00.296Z,49.25
2023-05-03T19:23:27.325Z,49.72
2023-05-03T19:25:54.301Z,49.61
2023-05-03T19:28:21.526Z,49.59
2023-05-03T19:30:51.762Z,49.41
2023-05-03T19:33:19.803Z,48.89
2023-05-03T19:35:47.252Z,49.04
2023-05-03T19:38:14.687Z,49.09
2023-05-03T19:40:41.840Z,49.59
2023-05-03T19:43:08.925Z,49.31
2023-05-03T19:45:42.098Z,49.44
2023-05-03T19:48:10.465Z,49.66
2023-05-03T19:50:37.795Z,50.12
2023-05-03T19:53:05.064Z,50.41
2023-05-03T19:55:32.130Z,50.10
2023-05-03T19:57:59.344Z,50.29
2023-05-03T20:00:29.974Z,50.24
2023-05-03T20:02:57.119Z,50.83
2023-05-03T20:05:24.216Z,50.45
2023-05-03T20:07:52.803Z,50.87
2023-05-03T20:10:19.945Z,51.09
2023-05-03T20:12:47.347Z,51.21
2023-05-03T20:15:14.448Z,51.10
2023-05-03T20:17:41.562Z,51.51
2023-05-03T20:20:12.548Z,52.22
2023-05-03T20:22:39.789Z,51.95
2023-05-03T20:25:07.368Z,52.83
2023-05-03T20:27:34.419Z,52.50
2023-05-03T20:30:01.849Z,52.86
2023-05-03T20:32:31.420Z,53.16
2023-05-03T20:34:58.490Z,53.63
2023-05-03T20:37:26.739Z,53.99
2023-05-03T20:39:53.714Z,54.06
2023-05-03T20:42:20.841Z,53.85
2023-05-03T20:44:49.254Z,54.42
2023-05-03T20:47:16.318Z,54.30
2023-05-03T20:49:43.628Z,54.51
2023-05-03T20:52:17.872Z,54.36
2023-05-03T20:54:46.497Z,54.11
2023-05-03T20:57:13.881Z,54.10
2023-05-03T20:59:41.177Z,54.10
2023-05-03T21:02:08.438Z,54.12
2023-05-03T21:04:36.496Z,53.46
2023-05-03T21:07:03.828Z,53.74
2023-05-03T21:09:31.653Z,53.62
2023-05-03T21:11:58.705Z,53.30
2023-05-03T21:14:25.795Z,53.27
2023-05-03T21:16:52.906Z,53.27
2023-05-03T21:19:20.042Z,53.15
2023-05-03T21:21:47.242Z,53.43
2023-05-03T21:24:14.391Z,52.90
2023-05-03T21:26:41.596Z,52.79
2023-05-03T21:29:08.667Z,52.91
2023-05-03T21:31:35.816Z,52.91
2023-05-03T21:34:04.162Z,52.85
2023-05-03T21:36:32.608Z,52.92
2023-05-03T21:38:59.716Z,52.60
2023-05-03T21:41:27.061Z,52.48
2023-05-03T21:43:54.153Z,52.51
2023-05-03T21:46:21.286Z,52.38
2023-05-03T21:48:48.560Z,52.46
2023-05-03T21:51:20.136Z,52.56
2023-05-03T21:53:47.983Z,52.87
2023-05-03T21:56:15.682Z,52.31
2023-05-03T21:58:45.787Z,52.56
2023-05-03T22:01:15.260Z,53.08
2023-05-03T22:03:42.479Z,53.23
2023-05-03T22:06:09.725Z,53.15
2023-05-03T22:08:36.980Z,53.22
2023-05-03T22:11:07.271Z,53.34
2023-05-03T22:13:43.172Z,53.53
2023-05-03T22:16:18.501Z,53.48
2023-05-03T22:18:45.534Z,53.80
2023-05-03T22:21:12.798Z,54.18
2023-05-03T22:23:39.848Z,54.05
2023-05-03T22:26:07.471Z,53.94
2023-05-03T22:28:34.468Z,54.28
2023-05-03T22:31:01.494Z,53.88
2023-05-03T22:33:28.728Z,54.22
2023-05-03T22:35:55.733Z,54.38
2023-05-03T22:38:22.725Z,53.86
2023-05-03T22:40:49.838Z,54.01
2023-05-03T22:43:17.491Z,53.79
2023-05-03T22:45:44.530Z,53.96
2023-05-03T22:48:11.553Z,54.01
2023-05-03T22:50:38.850Z,54.08
2023-05-03T22:53:06.342Z,54.02
2023-05-03T22:55:33.431Z,54.15
2023-05-03T22:58:00.433Z,54.20
2023-05-03T23:00:28.128Z,53.86
2023-05-03T23:02:55.794Z,54.10
2023-05-03T23:05:22.895Z,53.77
2023-05-03T23:07:49.987Z,53.79
2023-05-03T23:10:17.027Z,53.67
2023-05-03T23:12:44.133Z,53.78
2023-05-03T23:15:11.981Z,53.86
2023-05-03T23:17:39.156Z,53.79
2023-05-03T23:20:07.239Z,54.30
2023-05-03T23:22:34.930Z,54.07
2023-05-03T23:25:02.102Z,54.21
2023-05-03T23:27:31.048Z,54.05
2023-05-03T23:29:58.694Z,54.32
2023-05-03T23:32:25.966Z,54.20
2023-05-03T23:34:53.565Z,54.45
2023-05-03T23:37:20.733Z,54.34
2023-05-03T23:39:47.778Z,54.46
2023-05-03T23:42:14.798Z,54.73
2023-05-03T23:44:53.054Z,54.35
2023-05-03T23:47:22.009Z,54.49
2023-05-03T23:49:49.066Z,54.53
2023-05-03T23:52:19.119Z,54.75
2023-05-03T23:54:46.445Z,54.75
2023-05-03T23:57:13.503Z,54.49
2023-05-03T23:59:40.503Z,54.53
